sensor_id;sensor_type;location;lat;lon;timestamp;P1;durP1;ratioP1;P2;durP2;ratioP2
7729;SDS011;3908;52.310;7.230;2023-05-24T00:02:00;17.13;;;3.10;;
7729;SDS011;3908;52.310;7.230;2023-05-24T00:04:48;6.37;;;2.90;;
7729;SDS011;3908;52.310;7.230;2023-05-24T00:07:35;11.47;;;3.20;;
7729;SDS011;3908;52.310;7.230;2023-05-24T00:10:21;16.80;;;3.30;;
7729;SDS011;3908;52.310;7.230;2023-05-24T00:13:08;17.37;;;3.50;;
7729;SDS011;3908;52.310;7.230;2023-05-24T00:15:56;10.70;;;3.40;;
7729;SDS011;3908;52.310;7.230;2023-05-24T00:18:43;11.10;;;3.00;;
7729;SDS011;3908;52.310;7.230;2023-05-24T00:21:31;11.67;;;3.47;;
7729;SDS011;3908;52.310;7.230;2023-05-24T00:24:21;14.17;;;3.37;;
7729;SDS011;3908;52.310;7.230;2023-05-24T00:27:07;14.80;;;3.87;;
7729;SDS011;3908;52.310;7.230;2023-05-24T00:29:56;15.77;;;4.10;;
7729;SDS011;3908;52.310;7.230;2023-05-24T00:32:44;15.70;;;3.70;;
7729;SDS011;3908;52.310;7.230;2023-05-24T00:35:31;13.67;;;3.63;;
7729;SDS011;3908;52.310;7.230;2023-05-24T00:38:17;17.67;;;3.50;;
7729;SDS011;3908;52.310;7.230;2023-05-24T00:41:04;11.13;;;3.90;;
7729;SDS011;3908;52.310;7.230;2023-05-24T00:43:51;12.60;;;4.13;;
7729;SDS011;3908;52.310;7.230;2023-05-24T00:46:38;10.23;;;3.40;;
7729;SDS011;3908;52.310;7.230;2023-05-24T00:49:34;9.30;;;3.10;;
7729;SDS011;3908;52.310;7.230;2023-05-24T00:52:20;11.70;;;3.57;;
7729;SDS011;3908;52.310;7.230;2023-05-24T00:55:08;12.37;;;3.97;;
7729;SDS011;3908;52.310;7.230;2023-05-24T00:57:55;12.97;;;3.53;;
7729;SDS011;3908;52.310;7.230;2023-05-24T01:00:42;19.53;;;3.70;;
7729;SDS011;3908;52.310;7.230;2023-05-24T01:03:30;20.27;;;4.50;;
7729;SDS011;3908;52.310;7.230;2023-05-24T01:06:19;11.50;;;3.67;;
7729;SDS011;3908;52.310;7.230;2023-05-24T01:09:07;13.73;;;3.73;;
7729;SDS011;3908;52.310;7.230;2023-05-24T01:12:00;14.37;;;3.67;;
7729;SDS011;3908;52.310;7.230;2023-05-24T01:14:52;16.37;;;3.70;;
7729;SDS011;3908;52.310;7.230;2023-05-24T01:17:45;23.33;;;4.70;;
7729;SDS011;3908;52.310;7.230;2023-05-24T01:20:33;13.50;;;3.80;;
7729;SDS011;3908;52.310;7.230;2023-05-24T01:23:30;15.53;;;3.57;;
7729;SDS011;3908;52.310;7.230;2023-05-24T01:26:19;16.90;;;3.80;;
7729;SDS011;3908;52.310;7.230;2023-05-24T01:29:13;14.07;;;3.80;;
7729;SDS011;3908;52.310;7.230;2023-05-24T01:32:00;9.90;;;3.77;;
7729;SDS011;3908;52.310;7.230;2023-05-24T01:34:47;11.30;;;3.40;;
7729;SDS011;3908;52.310;7.230;2023-05-24T01:37:34;12.53;;;3.77;;
7729;SDS011;3908;52.310;7.230;2023-05-24T01:40:20;17.47;;;4.50;;
7729;SDS011;3908;52.310;7.230;2023-05-24T01:43:11;13.57;;;3.70;;
7729;SDS011;3908;52.310;7.230;2023-05-24T01:46:03;16.57;;;4.40;;
7729;SDS011;3908;52.310;7.230;2023-05-24T01:48:53;9.13;;;4.80;;
7729;SDS011;3908;52.310;7.230;2023-05-24T01:51:43;15.40;;;4.63;;
7729;SDS011;3908;52.310;7.230;2023-05-24T01:54:36;16.03;;;4.47;;
7729;SDS011;3908;52.310;7.230;2023-05-24T01:57:24;22.73;;;4.63;;
7729;SDS011;3908;52.310;7.230;2023-05-24T02:00:12;16.33;;;4.10;;
7729;SDS011;3908;52.310;7.230;2023-05-24T02:03:01;17.23;;;4.63;;
7729;SDS011;3908;52.310;7.230;2023-05-24T02:05:48;19.27;;;5.03;;
7729;SDS011;3908;52.310;7.230;2023-05-24T02:08:35;17.10;;;4.73;;
7729;SDS011;3908;52.310;7.230;2023-05-24T02:11:22;16.70;;;4.93;;
7729;SDS011;3908;52.310;7.230;2023-05-24T02:14:08;26.97;;;4.67;;
7729;SDS011;3908;52.310;7.230;2023-05-24T02:16:55;17.70;;;5.50;;
7729;SDS011;3908;52.310;7.230;2023-05-24T02:19:44;16.03;;;5.73;;
7729;SDS011;3908;52.310;7.230;2023-05-24T02:22:31;17.80;;;5.53;;
7729;SDS011;3908;52.310;7.230;2023-05-24T02:25:17;18.30;;;4.60;;
7729;SDS011;3908;52.310;7.230;2023-05-24T02:28:05;20.57;;;4.77;;
7729;SDS011;3908;52.310;7.230;2023-05-24T02:30:52;21.83;;;4.80;;
7729;SDS011;3908;52.310;7.230;2023-05-24T02:33:38;19.60;;;5.17;;
7729;SDS011;3908;52.310;7.230;2023-05-24T02:36:26;30.13;;;5.90;;
7729;SDS011;3908;52.310;7.230;2023-05-24T02:39:13;16.27;;;5.10;;
7729;SDS011;3908;52.310;7.230;2023-05-24T02:42:00;22.67;;;4.83;;
7729;SDS011;3908;52.310;7.230;2023-05-24T02:44:49;19.17;;;5.57;;
7729;SDS011;3908;52.310;7.230;2023-05-24T02:47:36;15.73;;;4.93;;
7729;SDS011;3908;52.310;7.230;2023-05-24T02:50:23;19.57;;;4.83;;
7729;SDS011;3908;52.310;7.230;2023-05-24T02:53:11;16.83;;;4.63;;
7729;SDS011;3908;52.310;7.230;2023-05-24T02:55:58;16.93;;;5.17;;
7729;SDS011;3908;52.310;7.230;2023-05-24T02:58:45;19.23;;;4.87;;
7729;SDS011;3908;52.310;7.230;2023-05-24T03:01:32;15.50;;;5.23;;
7729;SDS011;3908;52.310;7.230;2023-05-24T03:04:19;19.13;;;5.00;;
7729;SDS011;3908;52.310;7.230;2023-05-24T03:07:06;19.80;;;5.07;;
7729;SDS011;3908;52.310;7.230;2023-05-24T03:09:54;15.50;;;5.70;;
7729;SDS011;3908;52.310;7.230;2023-05-24T03:12:41;13.60;;;4.63;;
7729;SDS011;3908;52.310;7.230;2023-05-24T03:15:28;18.67;;;5.17;;
7729;SDS011;3908;52.310;7.230;2023-05-24T03:18:15;24.27;;;5.60;;
7729;SDS011;3908;52.310;7.230;2023-05-24T03:21:01;21.17;;;5.30;;
7729;SDS011;3908;52.310;7.230;2023-05-24T03:23:48;24.20;;;5.20;;
7729;SDS011;3908;52.310;7.230;2023-05-24T03:26:36;25.33;;;5.47;;
7729;SDS011;3908;52.310;7.230;2023-05-24T03:29:23;19.63;;;4.80;;
7729;SDS011;3908;52.310;7.230;2023-05-24T03:32:10;22.33;;;5.23;;
7729;SDS011;3908;52.310;7.230;2023-05-24T03:34:57;26.00;;;5.50;;
7729;SDS011;3908;52.310;7.230;2023-05-24T03:37:45;18.53;;;5.50;;
7729;SDS011;3908;52.310;7.230;2023-05-24T03:40:32;16.47;;;5.10;;
7729;SDS011;3908;52.310;7.230;2023-05-24T03:43:20;20.50;;;6.13;;
7729;SDS011;3908;52.310;7.230;2023-05-24T03:46:07;20.07;;;5.50;;
7729;SDS011;3908;52.310;7.230;2023-05-24T03:48:54;19.23;;;6.07;;
7729;SDS011;3908;52.310;7.230;2023-05-24T03:51:41;24.17;;;5.10;;
7729;SDS011;3908;52.310;7.230;2023-05-24T03:54:28;19.00;;;5.47;;
7729;SDS011;3908;52.310;7.230;2023-05-24T03:57:15;22.10;;;5.90;;
7729;SDS011;3908;52.310;7.230;2023-05-24T04:00:07;28.33;;;5.40;;
7729;SDS011;3908;52.310;7.230;2023-05-24T04:02:55;19.40;;;5.67;;
7729;SDS011;3908;52.310;7.230;2023-05-24T04:05:42;14.50;;;4.73;;
7729;SDS011;3908;52.310;7.230;2023-05-24T04:08:28;22.67;;;6.63;;
7729;SDS011;3908;52.310;7.230;2023-05-24T04:11:15;24.13;;;5.00;;
7729;SDS011;3908;52.310;7.230;2023-05-24T04:14:02;22.07;;;5.67;;
7729;SDS011;3908;52.310;7.230;2023-05-24T04:16:50;32.43;;;6.57;;
7729;SDS011;3908;52.310;7.230;2023-05-24T04:19:38;27.13;;;5.80;;
7729;SDS011;3908;52.310;7.230;2023-05-24T04:22:24;15.07;;;5.00;;
7729;SDS011;3908;52.310;7.230;2023-05-24T04:25:11;21.73;;;6.03;;
7729;SDS011;3908;52.310;7.230;2023-05-24T04:27:58;19.97;;;5.17;;
7729;SDS011;3908;52.310;7.230;2023-05-24T04:30:46;16.23;;;5.33;;
7729;SDS011;3908;52.310;7.230;2023-05-24T04:33:35;15.70;;;5.40;;
7729;SDS011;3908;52.310;7.230;2023-05-24T04:36:23;21.63;;;5.90;;
7729;SDS011;3908;52.310;7.230;2023-05-24T04:39:10;21.43;;;5.13;;
7729;SDS011;3908;52.310;7.230;2023-05-24T04:41:57;21.73;;;5.17;;
7729;SDS011;3908;52.310;7.230;2023-05-24T04:44:45;19.47;;;4.83;;
7729;SDS011;3908;52.310;7.230;2023-05-24T04:47:31;21.80;;;5.40;;
7729;SDS011;3908;52.310;7.230;2023-05-24T04:50:19;22.47;;;5.33;;
7729;SDS011;3908;52.310;7.230;2023-05-24T04:53:06;24.67;;;5.83;;
7729;SDS011;3908;52.310;7.230;2023-05-24T04:55:53;24.30;;;5.43;;
7729;SDS011;3908;52.310;7.230;2023-05-24T04:58:40;26.73;;;5.33;;
7729;SDS011;3908;52.310;7.230;2023-05-24T05:01:27;23.03;;;6.03;;
7729;SDS011;3908;52.310;7.230;2023-05-24T05:04:14;16.87;;;6.23;;
7729;SDS011;3908;52.310;7.230;2023-05-24T05:07:02;19.97;;;5.37;;
7729;SDS011;3908;52.310;7.230;2023-05-24T05:09:49;28.47;;;6.33;;
7729;SDS011;3908;52.310;7.230;2023-05-24T05:12:36;20.93;;;5.70;;
7729;SDS011;3908;52.310;7.230;2023-05-24T05:15:23;22.73;;;6.20;;
7729;SDS011;3908;52.310;7.230;2023-05-24T05:18:11;26.13;;;5.67;;
7729;SDS011;3908;52.310;7.230;2023-05-24T05:20:58;16.97;;;5.10;;
7729;SDS011;3908;52.310;7.230;2023-05-24T05:23:47;19.83;;;6.00;;
7729;SDS011;3908;52.310;7.230;2023-05-24T05:26:33;25.30;;;6.20;;
7729;SDS011;3908;52.310;7.230;2023-05-24T05:29:20;24.17;;;5.20;;
7729;SDS011;3908;52.310;7.230;2023-05-24T05:32:07;22.80;;;5.70;;
7729;SDS011;3908;52.310;7.230;2023-05-24T05:34:54;20.87;;;5.50;;
7729;SDS011;3908;52.310;7.230;2023-05-24T05:37:41;16.10;;;5.67;;
7729;SDS011;3908;52.310;7.230;2023-05-24T05:40:29;19.00;;;4.37;;
7729;SDS011;3908;52.310;7.230;2023-05-24T05:43:15;17.67;;;5.47;;
7729;SDS011;3908;52.310;7.230;2023-05-24T05:46:02;23.00;;;4.93;;
7729;SDS011;3908;52.310;7.230;2023-05-24T05:48:49;26.30;;;5.33;;
7729;SDS011;3908;52.310;7.230;2023-05-24T05:51:36;20.40;;;5.10;;
7729;SDS011;3908;52.310;7.230;2023-05-24T05:54:23;21.13;;;5.27;;
7729;SDS011;3908;52.310;7.230;2023-05-24T05:57:13;23.70;;;5.10;;
7729;SDS011;3908;52.310;7.230;2023-05-24T06:00:00;14.00;;;5.10;;
7729;SDS011;3908;52.310;7.230;2023-05-24T06:02:47;16.73;;;4.93;;
7729;SDS011;3908;52.310;7.230;2023-05-24T06:05:34;17.00;;;5.30;;
7729;SDS011;3908;52.310;7.230;2023-05-24T06:08:21;21.27;;;5.47;;
7729;SDS011;3908;52.310;7.230;2023-05-24T06:11:07;21.80;;;6.27;;
7729;SDS011;3908;52.310;7.230;2023-05-24T06:13:55;16.43;;;4.60;;
7729;SDS011;3908;52.310;7.230;2023-05-24T06:16:42;17.17;;;4.53;;
7729;SDS011;3908;52.310;7.230;2023-05-24T06:19:30;17.97;;;4.73;;
7729;SDS011;3908;52.310;7.230;2023-05-24T06:22:17;14.50;;;4.30;;
7729;SDS011;3908;52.310;7.230;2023-05-24T06:25:04;24.37;;;5.87;;
7729;SDS011;3908;52.310;7.230;2023-05-24T06:27:51;25.50;;;4.63;;
7729;SDS011;3908;52.310;7.230;2023-05-24T06:30:39;28.57;;;5.07;;
7729;SDS011;3908;52.310;7.230;2023-05-24T06:33:26;14.63;;;4.37;;
7729;SDS011;3908;52.310;7.230;2023-05-24T06:36:12;16.03;;;4.37;;
7729;SDS011;3908;52.310;7.230;2023-05-24T06:38:59;14.27;;;4.90;;
7729;SDS011;3908;52.310;7.230;2023-05-24T06:41:46;22.33;;;5.23;;
7729;SDS011;3908;52.310;7.230;2023-05-24T06:44:35;27.67;;;6.00;;
7729;SDS011;3908;52.310;7.230;2023-05-24T06:47:23;27.10;;;5.90;;
7729;SDS011;3908;52.310;7.230;2023-05-24T06:50:10;19.40;;;4.50;;
7729;SDS011;3908;52.310;7.230;2023-05-24T06:52:57;18.50;;;4.40;;
7729;SDS011;3908;52.310;7.230;2023-05-24T06:55:43;20.20;;;4.40;;
7729;SDS011;3908;52.310;7.230;2023-05-24T06:58:30;17.40;;;4.50;;
7729;SDS011;3908;52.310;7.230;2023-05-24T07:01:17;18.80;;;4.60;;
7729;SDS011;3908;52.310;7.230;2023-05-24T07:04:05;18.30;;;4.00;;
7729;SDS011;3908;52.310;7.230;2023-05-24T07:06:52;15.33;;;4.07;;
7729;SDS011;3908;52.310;7.230;2023-05-24T07:09:39;15.43;;;4.20;;
7729;SDS011;3908;52.310;7.230;2023-05-24T07:12:25;10.23;;;3.73;;
7729;SDS011;3908;52.310;7.230;2023-05-24T07:15:12;14.73;;;4.77;;
7729;SDS011;3908;52.310;7.230;2023-05-24T07:17:59;11.40;;;5.30;;
7729;SDS011;3908;52.310;7.230;2023-05-24T07:20:47;19.47;;;4.90;;
7729;SDS011;3908;52.310;7.230;2023-05-24T07:23:34;17.40;;;5.47;;
7729;SDS011;3908;52.310;7.230;2023-05-24T07:26:21;22.80;;;5.77;;
7729;SDS011;3908;52.310;7.230;2023-05-24T07:29:08;18.00;;;4.70;;
7729;SDS011;3908;52.310;7.230;2023-05-24T07:31:55;19.30;;;5.00;;
7729;SDS011;3908;52.310;7.230;2023-05-24T07:34:42;16.63;;;4.33;;
7729;SDS011;3908;52.310;7.230;2023-05-24T07:37:30;22.97;;;5.73;;
7729;SDS011;3908;52.310;7.230;2023-05-24T07:40:17;16.20;;;4.57;;
7729;SDS011;3908;52.310;7.230;2023-05-24T07:43:04;15.27;;;4.07;;
7729;SDS011;3908;52.310;7.230;2023-05-24T07:45:51;18.20;;;4.57;;
7729;SDS011;3908;52.310;7.230;2023-05-24T07:48:37;20.77;;;4.17;;
7729;SDS011;3908;52.310;7.230;2023-05-24T07:51:24;18.57;;;4.30;;
7729;SDS011;3908;52.310;7.230;2023-05-24T07:54:12;13.97;;;3.90;;
7729;SDS011;3908;52.310;7.230;2023-05-24T07:56:59;22.37;;;3.93;;
7729;SDS011;3908;52.310;7.230;2023-05-24T07:59:47;23.50;;;4.67;;
7729;SDS011;3908;52.310;7.230;2023-05-24T08:02:33;13.33;;;3.73;;
7729;SDS011;3908;52.310;7.230;2023-05-24T08:05:20;16.80;;;3.80;;
7729;SDS011;3908;52.310;7.230;2023-05-24T08:08:07;15.07;;;3.90;;
7729;SDS011;3908;52.310;7.230;2023-05-24T08:10:56;13.73;;;3.80;;
7729;SDS011;3908;52.310;7.230;2023-05-24T08:13:43;16.43;;;4.00;;
7729;SDS011;3908;52.310;7.230;2023-05-24T08:16:30;15.07;;;4.83;;
7729;SDS011;3908;52.310;7.230;2023-05-24T08:19:17;13.37;;;4.07;;
7729;SDS011;3908;52.310;7.230;2023-05-24T08:22:03;20.93;;;4.57;;
7729;SDS011;3908;52.310;7.230;2023-05-24T08:24:50;13.57;;;4.80;;
7729;SDS011;3908;52.310;7.230;2023-05-24T08:27:39;14.03;;;3.87;;
7729;SDS011;3908;52.310;7.230;2023-05-24T08:30:25;16.10;;;3.90;;
7729;SDS011;3908;52.310;7.230;2023-05-24T08:33:12;16.27;;;3.47;;
7729;SDS011;3908;52.310;7.230;2023-05-24T08:35:59;13.33;;;4.03;;
7729;SDS011;3908;52.310;7.230;2023-05-24T08:38:46;11.03;;;3.63;;
7729;SDS011;3908;52.310;7.230;2023-05-24T08:41:32;17.37;;;4.00;;
7729;SDS011;3908;52.310;7.230;2023-05-24T08:44:23;16.20;;;4.07;;
7729;SDS011;3908;52.310;7.230;2023-05-24T08:47:10;15.43;;;4.30;;
7729;SDS011;3908;52.310;7.230;2023-05-24T08:49:57;13.77;;;3.70;;
7729;SDS011;3908;52.310;7.230;2023-05-24T08:52:44;19.00;;;3.90;;
7729;SDS011;3908;52.310;7.230;2023-05-24T08:55:31;15.40;;;3.80;;
7729;SDS011;3908;52.310;7.230;2023-05-24T08:58:18;16.37;;;4.57;;
7729;SDS011;3908;52.310;7.230;2023-05-24T09:01:06;13.47;;;4.43;;
7729;SDS011;3908;52.310;7.230;2023-05-24T09:03:53;9.80;;;3.30;;
7729;SDS011;3908;52.310;7.230;2023-05-24T09:06:40;18.43;;;4.60;;
7729;SDS011;3908;52.310;7.230;2023-05-24T09:09:28;15.73;;;3.80;;
7729;SDS011;3908;52.310;7.230;2023-05-24T09:12:16;13.03;;;3.33;;
7729;SDS011;3908;52.310;7.230;2023-05-24T09:15:04;14.07;;;4.83;;
7729;SDS011;3908;52.310;7.230;2023-05-24T09:17:52;13.53;;;4.17;;
7729;SDS011;3908;52.310;7.230;2023-05-24T09:20:39;12.73;;;4.20;;
7729;SDS011;3908;52.310;7.230;2023-05-24T09:23:26;10.80;;;4.13;;
7729;SDS011;3908;52.310;7.230;2023-05-24T09:26:13;16.77;;;3.97;;
7729;SDS011;3908;52.310;7.230;2023-05-24T09:29:00;12.37;;;4.10;;
7729;SDS011;3908;52.310;7.230;2023-05-24T09:31:46;16.20;;;3.90;;
7729;SDS011;3908;52.310;7.230;2023-05-24T09:34:38;16.40;;;4.83;;
7729;SDS011;3908;52.310;7.230;2023-05-24T09:37:26;20.30;;;4.00;;
7729;SDS011;3908;52.310;7.230;2023-05-24T09:40:16;12.77;;;3.53;;
7729;SDS011;3908;52.310;7.230;2023-05-24T09:43:04;12.97;;;3.90;;
7729;SDS011;3908;52.310;7.230;2023-05-24T09:45:51;15.47;;;4.67;;
7729;SDS011;3908;52.310;7.230;2023-05-24T09:48:38;16.27;;;4.00;;
7729;SDS011;3908;52.310;7.230;2023-05-24T09:51:27;15.03;;;4.27;;
7729;SDS011;3908;52.310;7.230;2023-05-24T09:54:14;21.40;;;4.07;;
7729;SDS011;3908;52.310;7.230;2023-05-24T09:57:01;16.67;;;4.07;;
7729;SDS011;3908;52.310;7.230;2023-05-24T09:59:48;15.93;;;4.10;;
7729;SDS011;3908;52.310;7.230;2023-05-24T10:02:35;21.67;;;4.30;;
7729;SDS011;3908;52.310;7.230;2023-05-24T10:05:22;15.90;;;4.10;;
7729;SDS011;3908;52.310;7.230;2023-05-24T10:08:10;14.73;;;4.07;;
7729;SDS011;3908;52.310;7.230;2023-05-24T10:10:58;16.47;;;4.10;;
7729;SDS011;3908;52.310;7.230;2023-05-24T10:13:46;13.90;;;4.33;;
7729;SDS011;3908;52.310;7.230;2023-05-24T10:16:34;18.67;;;4.03;;
7729;SDS011;3908;52.310;7.230;2023-05-24T10:19:22;15.67;;;3.80;;
7729;SDS011;3908;52.310;7.230;2023-05-24T10:22:09;14.57;;;4.60;;
7729;SDS011;3908;52.310;7.230;2023-05-24T10:24:58;15.33;;;4.00;;
7729;SDS011;3908;52.310;7.230;2023-05-24T10:27:45;15.90;;;4.47;;
7729;SDS011;3908;52.310;7.230;2023-05-24T10:30:35;11.23;;;3.70;;
7729;SDS011;3908;52.310;7.230;2023-05-24T10:33:22;13.37;;;3.30;;
7729;SDS011;3908;52.310;7.230;2023-05-24T10:36:10;12.67;;;3.87;;
7729;SDS011;3908;52.310;7.230;2023-05-24T10:39:00;10.33;;;3.67;;
7729;SDS011;3908;52.310;7.230;2023-05-24T10:41:49;14.83;;;4.27;;
7729;SDS011;3908;52.310;7.230;2023-05-24T10:44:36;14.40;;;3.90;;
7729;SDS011;3908;52.310;7.230;2023-05-24T10:47:24;14.37;;;3.30;;
7729;SDS011;3908;52.310;7.230;2023-05-24T10:50:15;8.50;;;3.40;;
7729;SDS011;3908;52.310;7.230;2023-05-24T10:53:12;12.30;;;4.07;;
7729;SDS011;3908;52.310;7.230;2023-05-24T10:55:59;14.90;;;3.83;;
7729;SDS011;3908;52.310;7.230;2023-05-24T10:58:58;16.07;;;3.87;;
7729;SDS011;3908;52.310;7.230;2023-05-24T11:01:52;14.67;;;3.53;;
7729;SDS011;3908;52.310;7.230;2023-05-24T11:04:40;14.67;;;3.37;;
7729;SDS011;3908;52.310;7.230;2023-05-24T11:07:28;14.47;;;3.93;;
7729;SDS011;3908;52.310;7.230;2023-05-24T11:10:17;10.67;;;3.83;;
7729;SDS011;3908;52.310;7.230;2023-05-24T11:13:15;12.87;;;3.73;;
7729;SDS011;3908;52.310;7.230;2023-05-24T11:16:05;9.10;;;3.20;;
7729;SDS011;3908;52.310;7.230;2023-05-24T11:18:53;10.80;;;3.63;;
7729;SDS011;3908;52.310;7.230;2023-05-24T11:21:42;12.43;;;2.73;;
7729;SDS011;3908;52.310;7.230;2023-05-24T11:24:29;12.80;;;3.60;;
7729;SDS011;3908;52.310;7.230;2023-05-24T11:27:16;12.77;;;3.63;;
7729;SDS011;3908;52.310;7.230;2023-05-24T11:30:03;10.27;;;3.30;;
7729;SDS011;3908;52.310;7.230;2023-05-24T11:32:52;13.27;;;3.77;;
7729;SDS011;3908;52.310;7.230;2023-05-24T11:35:39;13.50;;;3.67;;
7729;SDS011;3908;52.310;7.230;2023-05-24T11:38:26;10.33;;;3.77;;
7729;SDS011;3908;52.310;7.230;2023-05-24T11:41:13;16.37;;;3.30;;
7729;SDS011;3908;52.310;7.230;2023-05-24T11:44:00;12.03;;;3.33;;
7729;SDS011;3908;52.310;7.230;2023-05-24T11:46:46;9.50;;;3.07;;
7729;SDS011;3908;52.310;7.230;2023-05-24T11:49:35;9.80;;;3.07;;
7729;SDS011;3908;52.310;7.230;2023-05-24T11:52:21;16.90;;;3.53;;
7729;SDS011;3908;52.310;7.230;2023-05-24T11:55:10;12.97;;;4.07;;
7729;SDS011;3908;52.310;7.230;2023-05-24T11:57:58;10.37;;;2.73;;
7729;SDS011;3908;52.310;7.230;2023-05-24T12:00:45;8.03;;;2.83;;
7729;SDS011;3908;52.310;7.230;2023-05-24T12:03:32;9.03;;;2.80;;
7729;SDS011;3908;52.310;7.230;2023-05-24T12:06:21;8.53;;;2.97;;
7729;SDS011;3908;52.310;7.230;2023-05-24T12:09:08;7.83;;;2.73;;
7729;SDS011;3908;52.310;7.230;2023-05-24T12:11:57;14.00;;;3.03;;
7729;SDS011;3908;52.310;7.230;2023-05-24T12:14:44;14.03;;;4.00;;
7729;SDS011;3908;52.310;7.230;2023-05-24T12:17:31;13.53;;;3.63;;
7729;SDS011;3908;52.310;7.230;2023-05-24T12:20:18;14.00;;;3.17;;
7729;SDS011;3908;52.310;7.230;2023-05-24T12:23:07;10.97;;;3.27;;
7729;SDS011;3908;52.310;7.230;2023-05-24T12:25:56;12.10;;;3.13;;
7729;SDS011;3908;52.310;7.230;2023-05-24T12:28:43;13.80;;;3.40;;
7729;SDS011;3908;52.310;7.230;2023-05-24T12:31:30;7.90;;;2.93;;
7729;SDS011;3908;52.310;7.230;2023-05-24T12:34:17;8.43;;;3.40;;
7729;SDS011;3908;52.310;7.230;2023-05-24T12:37:06;12.17;;;2.90;;
7729;SDS011;3908;52.310;7.230;2023-05-24T12:39:54;10.27;;;3.37;;
7729;SDS011;3908;52.310;7.230;2023-05-24T12:42:42;7.23;;;2.90;;
7729;SDS011;3908;52.310;7.230;2023-05-24T12:45:29;9.73;;;2.83;;
7729;SDS011;3908;52.310;7.230;2023-05-24T12:48:16;10.90;;;3.07;;
7729;SDS011;3908;52.310;7.230;2023-05-24T12:51:03;13.57;;;3.50;;
7729;SDS011;3908;52.310;7.230;2023-05-24T12:53:50;14.17;;;3.23;;
7729;SDS011;3908;52.310;7.230;2023-05-24T12:56:38;10.50;;;2.90;;
7729;SDS011;3908;52.310;7.230;2023-05-24T12:59:25;12.63;;;3.80;;
7729;SDS011;3908;52.310;7.230;2023-05-24T13:02:12;9.07;;;3.03;;
7729;SDS011;3908;52.310;7.230;2023-05-24T13:04:59;9.03;;;3.43;;
7729;SDS011;3908;52.310;7.230;2023-05-24T13:07:46;14.77;;;3.10;;
7729;SDS011;3908;52.310;7.230;2023-05-24T13:10:32;7.47;;;2.70;;
7729;SDS011;3908;52.310;7.230;2023-05-24T13:13:20;7.43;;;3.23;;
7729;SDS011;3908;52.310;7.230;2023-05-24T13:16:08;9.53;;;3.40;;
7729;SDS011;3908;52.310;7.230;2023-05-24T13:18:55;9.23;;;3.37;;
7729;SDS011;3908;52.310;7.230;2023-05-24T13:21:42;9.97;;;3.53;;
7729;SDS011;3908;52.310;7.230;2023-05-24T13:24:29;7.17;;;3.17;;
7729;SDS011;3908;52.310;7.230;2023-05-24T13:27:16;13.83;;;4.20;;
7729;SDS011;3908;52.310;7.230;2023-05-24T13:30:04;11.40;;;3.40;;
7729;SDS011;3908;52.310;7.230;2023-05-24T13:32:52;11.47;;;3.10;;
7729;SDS011;3908;52.310;7.230;2023-05-24T13:35:40;10.70;;;3.30;;
7729;SDS011;3908;52.310;7.230;2023-05-24T13:38:27;7.93;;;3.23;;
7729;SDS011;3908;52.310;7.230;2023-05-24T13:41:14;9.33;;;2.93;;
7729;SDS011;3908;52.310;7.230;2023-05-24T13:44:00;10.67;;;3.10;;
7729;SDS011;3908;52.310;7.230;2023-05-24T13:46:48;13.93;;;3.30;;
7729;SDS011;3908;52.310;7.230;2023-05-24T13:49:35;11.23;;;3.17;;
7729;SDS011;3908;52.310;7.230;2023-05-24T13:52:22;9.40;;;2.90;;
7729;SDS011;3908;52.310;7.230;2023-05-24T13:55:09;9.13;;;2.80;;
7729;SDS011;3908;52.310;7.230;2023-05-24T13:57:56;7.57;;;2.47;;
7729;SDS011;3908;52.310;7.230;2023-05-24T14:00:42;10.03;;;3.77;;
7729;SDS011;3908;52.310;7.230;2023-05-24T14:03:30;11.27;;;3.30;;
7729;SDS011;3908;52.310;7.230;2023-05-24T14:06:18;6.30;;;3.17;;
7729;SDS011;3908;52.310;7.230;2023-05-24T14:09:06;10.90;;;3.23;;
7729;SDS011;3908;52.310;7.230;2023-05-24T14:11:53;8.33;;;3.07;;
7729;SDS011;3908;52.310;7.230;2023-05-24T14:14:40;9.63;;;3.13;;
7729;SDS011;3908;52.310;7.230;2023-05-24T14:17:27;11.33;;;3.40;;
7729;SDS011;3908;52.310;7.230;2023-05-24T14:20:15;17.13;;;4.20;;
7729;SDS011;3908;52.310;7.230;2023-05-24T14:23:02;7.33;;;2.60;;
7729;SDS011;3908;52.310;7.230;2023-05-24T14:25:49;9.10;;;3.33;;
7729;SDS011;3908;52.310;7.230;2023-05-24T14:28:36;15.37;;;3.50;;
7729;SDS011;3908;52.310;7.230;2023-05-24T14:31:23;14.20;;;3.37;;
7729;SDS011;3908;52.310;7.230;2023-05-24T14:34:10;8.40;;;3.20;;
7729;SDS011;3908;52.310;7.230;2023-05-24T14:36:58;9.10;;;2.80;;
7729;SDS011;3908;52.310;7.230;2023-05-24T14:39:44;10.00;;;3.23;;
7729;SDS011;3908;52.310;7.230;2023-05-24T14:42:31;11.70;;;2.97;;
7729;SDS011;3908;52.310;7.230;2023-05-24T14:45:18;8.20;;;3.10;;
7729;SDS011;3908;52.310;7.230;2023-05-24T14:48:05;7.97;;;2.73;;
7729;SDS011;3908;52.310;7.230;2023-05-24T14:50:54;8.87;;;3.23;;
7729;SDS011;3908;52.310;7.230;2023-05-24T14:53:43;10.77;;;2.90;;
7729;SDS011;3908;52.310;7.230;2023-05-24T14:56:29;11.90;;;3.20;;
7729;SDS011;3908;52.310;7.230;2023-05-24T14:59:16;7.60;;;2.70;;
7729;SDS011;3908;52.310;7.230;2023-05-24T15:02:03;10.57;;;2.70;;
7729;SDS011;3908;52.310;7.230;2023-05-24T15:04:50;13.30;;;3.60;;
7729;SDS011;3908;52.310;7.230;2023-05-24T15:07:37;13.00;;;3.30;;
7729;SDS011;3908;52.310;7.230;2023-05-24T15:10:25;8.13;;;3.00;;
7729;SDS011;3908;52.310;7.230;2023-05-24T15:13:12;9.50;;;3.47;;
7729;SDS011;3908;52.310;7.230;2023-05-24T15:15:59;10.57;;;3.30;;
7729;SDS011;3908;52.310;7.230;2023-05-24T15:18:46;12.50;;;4.50;;
7729;SDS011;3908;52.310;7.230;2023-05-24T15:21:32;9.63;;;3.13;;
7729;SDS011;3908;52.310;7.230;2023-05-24T15:24:21;12.73;;;3.33;;
7729;SDS011;3908;52.310;7.230;2023-05-24T15:27:09;12.50;;;3.40;;
7729;SDS011;3908;52.310;7.230;2023-05-24T15:29:56;9.10;;;3.50;;
7729;SDS011;3908;52.310;7.230;2023-05-24T15:32:43;9.80;;;2.50;;
7729;SDS011;3908;52.310;7.230;2023-05-24T15:35:30;7.03;;;2.63;;
7729;SDS011;3908;52.310;7.230;2023-05-24T15:38:17;12.07;;;3.00;;
7729;SDS011;3908;52.310;7.230;2023-05-24T15:41:04;9.17;;;3.30;;
7729;SDS011;3908;52.310;7.230;2023-05-24T15:43:52;11.70;;;3.07;;
7729;SDS011;3908;52.310;7.230;2023-05-24T15:46:39;7.17;;;3.07;;
7729;SDS011;3908;52.310;7.230;2023-05-24T15:49:26;8.30;;;3.17;;
7729;SDS011;3908;52.310;7.230;2023-05-24T15:52:13;11.00;;;3.03;;
7729;SDS011;3908;52.310;7.230;2023-05-24T15:55:00;15.23;;;3.67;;
7729;SDS011;3908;52.310;7.230;2023-05-24T15:57:47;6.77;;;2.77;;
7729;SDS011;3908;52.310;7.230;2023-05-24T16:00:38;8.03;;;2.90;;
7729;SDS011;3908;52.310;7.230;2023-05-24T16:03:24;7.60;;;2.90;;
7729;SDS011;3908;52.310;7.230;2023-05-24T16:06:12;10.43;;;3.30;;
7729;SDS011;3908;52.310;7.230;2023-05-24T16:09:02;11.67;;;2.73;;
7729;SDS011;3908;52.310;7.230;2023-05-24T16:11:52;9.00;;;2.83;;
7729;SDS011;3908;52.310;7.230;2023-05-24T16:14:39;8.10;;;2.90;;
7729;SDS011;3908;52.310;7.230;2023-05-24T16:17:27;7.20;;;3.00;;
7729;SDS011;3908;52.310;7.230;2023-05-24T16:20:14;9.73;;;2.80;;
7729;SDS011;3908;52.310;7.230;2023-05-24T16:23:01;7.50;;;2.90;;
7729;SDS011;3908;52.310;7.230;2023-05-24T16:25:48;10.67;;;3.00;;
7729;SDS011;3908;52.310;7.230;2023-05-24T16:28:35;7.60;;;3.57;;
7729;SDS011;3908;52.310;7.230;2023-05-24T16:31:22;9.30;;;3.40;;
7729;SDS011;3908;52.310;7.230;2023-05-24T16:34:10;11.13;;;2.87;;
7729;SDS011;3908;52.310;7.230;2023-05-24T16:36:57;10.47;;;3.40;;
7729;SDS011;3908;52.310;7.230;2023-05-24T16:39:43;11.37;;;3.50;;
7729;SDS011;3908;52.310;7.230;2023-05-24T16:42:30;7.20;;;2.43;;
7729;SDS011;3908;52.310;7.230;2023-05-24T16:45:17;7.27;;;3.03;;
7729;SDS011;3908;52.310;7.230;2023-05-24T16:48:04;7.63;;;2.73;;
7729;SDS011;3908;52.310;7.230;2023-05-24T16:50:52;9.30;;;3.30;;
7729;SDS011;3908;52.310;7.230;2023-05-24T16:53:40;14.97;;;3.30;;
7729;SDS011;3908;52.310;7.230;2023-05-24T16:56:27;11.23;;;3.10;;
7729;SDS011;3908;52.310;7.230;2023-05-24T16:59:14;13.90;;;3.80;;
7729;SDS011;3908;52.310;7.230;2023-05-24T17:02:02;6.87;;;3.03;;
7729;SDS011;3908;52.310;7.230;2023-05-24T17:04:49;11.90;;;3.57;;
7729;SDS011;3908;52.310;7.230;2023-05-24T17:07:37;8.97;;;3.37;;